Time,TemperatureF,DewpointF,PressureIn,WindDirection,WindDirectionDegrees,WindSpeedMPH,WindSpeedGustMPH,Humidity,HourlyPrecipIn,Conditions,Clouds,dailyrainin,SoftwareType,DateUTC
2013-02-02 00:06:00,25.6,19.0,30.38,ESE,108,0.0,-999.0,75,-99.99,,,0.00,weatherlink.com 1.10,2013-02-02 06:06:00,
2013-02-02 00:21:00,25.4,19.0,30.39,ESE,108,0.0,-999.0,78,-99.99,,,0.00,weatherlink.com 1.10,2013-02-02 06:21:00,
2013-02-02 00:36:00,25.0,19.0,30.38,ESE,108,0.0,-999.0,79,-99.99,,,0.00,weatherlink.com 1.10,2013-02-02 06:36:00,
2013-02-02 00:51:00,24.7,19.0,30.37,ESE,108,0.0,-999.0,80,-99.99,,,0.00,weatherlink.com 1.10,2013-02-02 06:51:00,
2013-02-02 01:06:00,24.3,20.0,30.38,ESE,108,1.0,-999.0,82,-99.99,,,0.00,weatherlink.com 1.10,2013-02-02 07:06:00,
2013-02-02 01:21:00,24.1,20.0,30.38,ESE,108,0.0,-999.0,83,-99.99,,,0.00,weatherlink.com 1.10,2013-02-02 07:21:00,
2013-02-02 01:36:00,23.8,19.0,30.38,ESE,108,0.0,-999.0,80,-99.99,,,0.00,weatherlink.com 1.10,2013-02-02 07:36:00,
2013-02-02 01:51:00,23.7,19.0,30.37,ESE,108,0.0,-999.0,81,-99.99,,,0.00,weatherlink.com 1.10,2013-02-02 07:51:00,
2013-02-02 02:06:00,23.6,19.0,30.36,ESE,108,0.0,-999.0,82,-99.99,,,0.00,weatherlink.com 1.10,2013-02-02 08:06:00,
2013-02-02 02:21:00,23.3,19.0,30.36,ESE,108,0.0,-999.0,84,-99.99,,,0.00,weatherlink.com 1.10,2013-02-02 08:21:00,
2013-02-02 02:36:00,23.1,19.0,30.36,ESE,108,1.0,-999.0,85,-99.99,,,0.00,weatherlink.com 1.10,2013-02-02 08:36:00,
2013-02-02 02:51:00,22.8,19.0,30.36,ESE,108,0.0,-999.0,85,-99.99,,,0.00,weatherlink.com 1.10,2013-02-02 08:51:00,
2013-02-02 03:06:00,22.6,19.0,30.35,ESE,108,0.0,-999.0,86,-99.99,,,0.00,weatherlink.com 1.10,2013-02-02 09:06:00,
2013-02-02 03:21:00,22.4,19.0,30.36,ESE,108,0.0,-999.0,85,-99.99,,,0.00,weatherlink.com 1.10,2013-02-02 09:21:00,
2013-02-02 03:36:00,22.2,19.0,30.34,ESE,108,0.0,-999.0,87,-99.99,,,0.00,weatherlink.com 1.10,2013-02-02 09:36:00,
2013-02-02 03:51:00,22.0,19.0,30.34,ESE,108,0.0,-999.0,88,-99.99,,,0.00,weatherlink.com 1.10,2013-02-02 09:51:00,
2013-02-02 04:06:00,21.8,19.0,30.34,ESE,108,0.0,-999.0,89,-99.99,,,0.00,weatherlink.com 1.10,2013-02-02 10:06:00,
2013-02-02 04:21:00,21.7,19.0,30.34,ESE,108,0.0,-999.0,89,-99.99,,,0.00,weatherlink.com 1.10,2013-02-02 10:21:00,
2013-02-02 04:36:00,21.5,19.0,30.34,ESE,108,0.0,-999.0,89,-99.99,,,0.00,weatherlink.com 1.10,2013-02-02 10:36:00,
2013-02-02 04:51:00,21.3,19.0,30.34,ESE,108,0.0,-999.0,89,-99.99,,,0.00,weatherlink.com 1.10,2013-02-02 10:51:00,
2013-02-02 05:06:00,21.1,18.0,30.34,ESE,108,0.0,-999.0,89,-99.99,,,0.00,weatherlink.com 1.10,2013-02-02 11:06:00,
2013-02-02 05:21:00,20.9,19.0,30.34,ESE,108,0.0,-999.0,90,-99.99,,,0.00,weatherlink.com 1.10,2013-02-02 11:21:00,
2013-02-02 05:36:00,20.8,18.0,30.35,ESE,108,0.0,-999.0,90,-99.99,,,0.00,weatherlink.com 1.10,2013-02-02 11:36:00,
2013-02-02 05:52:00,20.7,18.0,30.35,ESE,108,0.0,-999.0,90,-99.99,,,0.00,weatherlink.com 1.10,2013-02-02 11:52:00,
2013-02-02 06:09:00,20.7,18.0,30.35,ESE,108,0.0,-999.0,90,-99.99,,,0.00,weatherlink.com 1.10,2013-02-02 12:09:00,
2013-02-02 06:21:00,20.6,18.0,30.35,ESE,108,0.0,-999.0,91,-99.99,,,0.00,weatherlink.com 1.10,2013-02-02 12:21:00,
2013-02-02 06:36:00,20.5,18.0,30.35,ESE,108,0.0,-999.0,91,-99.99,,,0.00,weatherlink.com 1.10,2013-02-02 12:36:00,
2013-02-02 06:51:00,20.6,18.0,30.34,ESE,108,0.0,-999.0,91,-99.99,,,0.00,weatherlink.com 1.10,2013-02-02 12:51:00,
2013-02-02 07:06:00,20.5,18.0,30.34,ESE,108,0.0,-999.0,91,-99.99,,,0.00,weatherlink.com 1.10,2013-02-02 13:06:00,
2013-02-02 07:21:00,20.5,18.0,30.34,ESE,108,0.0,-999.0,91,-99.99,,,0.00,weatherlink.com 1.10,2013-02-02 13:21:00,
2013-02-02 07:36:00,21.0,19.0,30.34,ESE,108,0.0,-999.0,92,-99.99,,,0.00,weatherlink.com 1.10,2013-02-02 13:36:00,
2013-02-02 07:51:00,22.2,20.0,30.33,ESE,108,0.0,-999.0,92,-99.99,,,0.00,weatherlink.com 1.10,2013-02-02 13:51:00,
2013-02-02 08:06:00,24.1,22.0,30.33,ESE,108,0.0,-999.0,90,-99.99,,,0.00,weatherlink.com 1.10,2013-02-02 14:06:00,
2013-02-02 08:21:00,25.9,23.0,30.33,ESE,108,1.0,-999.0,87,-99.99,,,0.00,weatherlink.com 1.10,2013-02-02 14:21:00,
2013-02-02 08:36:00,27.9,24.0,30.34,ESE,108,0.0,-999.0,84,-99.99,,,0.00,weatherlink.com 1.10,2013-02-02 14:36:00,
2013-02-02 08:52:00,30.4,24.0,30.33,ESE,108,1.0,-999.0,77,-99.99,,,0.00,weatherlink.com 1.10,2013-02-02 14:52:00,
2013-02-02 09:07:00,31.6,24.0,30.33,ESE,117,0.0,-999.0,74,-99.99,,,0.00,weatherlink.com 1.10,2013-02-02 15:07:00,
2013-02-02 09:22:00,33.5,24.0,30.34,WSW,240,0.0,-999.0,68,-99.99,,,0.00,weatherlink.com 1.10,2013-02-02 15:22:00,
2013-02-02 09:37:00,34.1,22.0,30.35,NW,317,0.0,-999.0,62,-99.99,,,0.00,weatherlink.com 1.10,2013-02-02 15:37:00,
2013-02-02 09:52:00,33.8,23.0,30.35,North,5,1.0,-999.0,64,-99.99,,,0.00,weatherlink.com 1.10,2013-02-02 15:52:00,
2013-02-02 10:07:00,33.5,22.0,30.35,NNE,19,1.0,-999.0,64,-99.99,,,0.00,weatherlink.com 1.10,2013-02-02 16:07:00,
2013-02-02 10:22:00,34.0,24.0,30.34,NNE,30,3.0,-999.0,66,-99.99,,,0.00,weatherlink.com 1.10,2013-02-02 16:22:00,
2013-02-02 10:37:00,34.7,22.0,30.33,East,86,4.0,-999.0,61,-99.99,,,0.00,weatherlink.com 1.10,2013-02-02 16:37:00,
2013-02-02 10:52:00,35.9,24.0,30.32,NE,44,2.0,-999.0,63,-99.99,,,0.00,weatherlink.com 1.10,2013-02-02 16:52:00,
2013-02-02 11:07:00,38.3,23.0,30.31,SE,146,1.0,-999.0,55,-99.99,,,0.00,weatherlink.com 1.10,2013-02-02 17:07:00,
2013-02-02 11:22:00,40.0,23.0,30.30,ENE,65,4.0,-999.0,52,-99.99,,,0.00,weatherlink.com 1.10,2013-02-02 17:22:00,
2013-02-02 11:37:00,40.6,24.0,30.28,SE,134,6.0,-999.0,53,-99.99,,,0.00,weatherlink.com 1.10,2013-02-02 17:37:00,
2013-02-02 11:52:00,41.2,24.0,30.27,NW,307,0.0,-999.0,51,-99.99,,,0.00,weatherlink.com 1.10,2013-02-02 17:52:00,
2013-02-02 12:07:00,41.6,25.0,30.25,West,263,0.0,-999.0,53,-99.99,,,0.00,weatherlink.com 1.10,2013-02-02 18:07:00,
2013-02-02 12:23:00,42.1,26.0,30.23,ENE,61,1.0,-999.0,53,-99.99,,,0.00,weatherlink.com 1.10,2013-02-02 18:23:00,
2013-02-02 12:37:00,43.4,27.0,30.22,WNW,285,3.0,-999.0,52,-99.99,,,0.00,weatherlink.com 1.10,2013-02-02 18:37:00,
2013-02-02 12:52:00,45.9,28.0,30.21,West,273,4.0,-999.0,49,-99.99,,,0.00,weatherlink.com 1.10,2013-02-02 18:52:00,
2013-02-02 13:08:00,46.0,28.0,30.19,South,169,2.0,-999.0,50,-99.99,,,0.00,weatherlink.com 1.10,2013-02-02 19:08:00,
2013-02-02 13:22:00,46.0,29.0,30.18,West,273,1.0,-999.0,51,-99.99,,,0.00,weatherlink.com 1.10,2013-02-02 19:22:00,
2013-02-02 13:37:00,46.2,31.0,30.18,SE,132,0.0,-999.0,56,-99.99,,,0.00,weatherlink.com 1.10,2013-02-02 19:37:00,
2013-02-02 13:53:00,45.7,34.0,30.17,ENE,59,2.0,-999.0,64,-99.99,,,0.01,weatherlink.com 1.10,2013-02-02 19:53:00,
2013-02-02 14:08:00,45.4,32.0,30.16,ENE,59,0.0,-999.0,61,-99.99,,,0.01,weatherlink.com 1.10,2013-02-02 20:08:00,
2013-02-02 14:23:00,44.9,35.0,30.16,ENE,59,0.0,-999.0,68,-99.99,,,0.01,weatherlink.com 1.10,2013-02-02 20:23:00,
2013-02-02 14:38:00,44.3,37.0,30.15,ENE,59,0.0,-999.0,76,-99.99,,,0.01,weatherlink.com 1.10,2013-02-02 20:38:00,
2013-02-02 14:53:00,44.1,38.0,30.16,North,9,1.0,-999.0,78,-99.99,,,0.01,weatherlink.com 1.10,2013-02-02 20:53:00,
2013-02-02 15:08:00,42.4,38.0,30.18,ENE,76,3.0,-999.0,83,-99.99,,,0.02,weatherlink.com 1.10,2013-02-02 21:08:00,
2013-02-02 15:23:00,41.1,37.0,30.18,ENE,72,1.0,-999.0,85,-99.99,,,0.02,weatherlink.com 1.10,2013-02-02 21:23:00,
2013-02-02 15:38:00,40.1,37.0,30.21,NE,51,2.0,-999.0,88,-99.99,,,0.04,weatherlink.com 1.10,2013-02-02 21:38:00,
2013-02-02 15:53:00,39.7,37.0,30.20,ENE,69,1.0,-999.0,90,-99.99,,,0.07,weatherlink.com 1.10,2013-02-02 21:53:00,
2013-02-02 16:08:00,39.5,37.0,30.20,SE,128,1.0,-999.0,92,-99.99,,,0.08,weatherlink.com 1.10,2013-02-02 22:08:00,
2013-02-02 16:23:00,39.6,38.0,30.18,SE,128,1.0,-999.0,93,-99.99,,,0.10,weatherlink.com 1.10,2013-02-02 22:23:00,
2013-02-02 16:38:00,39.6,38.0,30.19,SE,128,0.0,-999.0,93,-99.99,,,0.12,weatherlink.com 1.10,2013-02-02 22:38:00,
2013-02-02 16:53:00,39.6,38.0,30.20,SE,128,0.0,-999.0,94,-99.99,,,0.14,weatherlink.com 1.10,2013-02-02 22:53:00,
2013-02-02 17:08:00,39.7,38.0,30.20,SE,128,1.0,-999.0,94,-99.99,,,0.15,weatherlink.com 1.10,2013-02-02 23:08:00,
2013-02-02 17:23:00,39.7,38.0,30.18,East,82,1.0,-999.0,94,-99.99,,,0.16,weatherlink.com 1.10,2013-02-02 23:23:00,
2013-02-02 17:38:00,39.7,38.0,30.16,South,183,3.0,-999.0,94,-99.99,,,0.16,weatherlink.com 1.10,2013-02-02 23:38:00,
2013-02-02 17:53:00,39.6,38.0,30.14,WSW,255,3.0,-999.0,94,-99.99,,,0.16,weatherlink.com 1.10,2013-02-02 23:53:00,
2013-02-02 18:08:00,39.7,38.0,30.16,West,266,1.0,-999.0,94,-99.99,,,0.16,weatherlink.com 1.10,2013-02-03 00:08:00,
2013-02-02 18:23:00,39.5,38.0,30.16,West,263,0.0,-999.0,94,-99.99,,,0.16,weatherlink.com 1.10,2013-02-03 00:23:00,
2013-02-02 18:38:00,38.8,37.0,30.16,SW,224,0.0,-999.0,94,-99.99,,,0.16,weatherlink.com 1.10,2013-02-03 00:38:00,
2013-02-02 18:53:00,38.3,37.0,30.16,SW,224,0.0,-999.0,94,-99.99,,,0.16,weatherlink.com 1.10,2013-02-03 00:53:00,
2013-02-02 19:08:00,37.6,36.0,30.17,SW,224,0.0,-999.0,93,-99.99,,,0.16,weatherlink.com 1.10,2013-02-03 01:08:00,
2013-02-02 19:23:00,37.0,36.0,30.17,SW,224,0.0,-999.0,94,-99.99,,,0.16,weatherlink.com 1.10,2013-02-03 01:23:00,
2013-02-02 19:38:00,36.4,35.0,30.18,SW,224,0.0,-999.0,94,-99.99,,,0.16,weatherlink.com 1.10,2013-02-03 01:38:00,
2013-02-02 19:53:00,35.6,34.0,30.18,SW,224,0.0,-999.0,94,-99.99,,,0.16,weatherlink.com 1.10,2013-02-03 01:53:00,
2013-02-02 20:08:00,35.0,34.0,30.18,SW,224,0.0,-999.0,94,-99.99,,,0.16,weatherlink.com 1.10,2013-02-03 02:08:00,
2013-02-02 20:23:00,34.4,33.0,30.18,SW,224,0.0,-999.0,94,-99.99,,,0.16,weatherlink.com 1.10,2013-02-03 02:23:00,
2013-02-02 20:38:00,33.7,32.0,30.19,SW,224,0.0,-999.0,94,-99.99,,,0.16,weatherlink.com 1.10,2013-02-03 02:38:00,
2013-02-02 20:53:00,33.1,32.0,30.19,SW,224,0.0,-999.0,94,-99.99,,,0.16,weatherlink.com 1.10,2013-02-03 02:53:00,
2013-02-02 21:08:00,32.6,31.0,30.20,SW,224,0.0,-999.0,94,-99.99,,,0.16,weatherlink.com 1.10,2013-02-03 03:08:00,
2013-02-02 21:23:00,32.5,31.0,30.21,SW,224,0.0,-999.0,95,-99.99,,,0.16,weatherlink.com 1.10,2013-02-03 03:23:00,
2013-02-02 21:38:00,32.8,32.0,30.21,SW,224,0.0,-999.0,95,-99.99,,,0.16,weatherlink.com 1.10,2013-02-03 03:38:00,
2013-02-02 21:53:00,33.5,33.0,30.20,SW,224,0.0,-999.0,96,-99.99,,,0.16,weatherlink.com 1.10,2013-02-03 03:53:00,
2013-02-02 22:08:00,34.6,34.0,30.20,West,268,1.0,-999.0,96,-99.99,,,0.16,weatherlink.com 1.10,2013-02-03 04:08:00,
2013-02-02 22:23:00,35.1,34.0,30.20,West,268,0.0,-999.0,96,-99.99,,,0.16,weatherlink.com 1.10,2013-02-03 04:23:00,
2013-02-02 22:38:00,35.3,34.0,30.19,West,276,0.0,-999.0,96,-99.99,,,0.16,weatherlink.com 1.10,2013-02-03 04:38:00,
2013-02-02 22:53:00,35.3,34.0,30.20,West,269,0.0,-999.0,96,-99.99,,,0.16,weatherlink.com 1.10,2013-02-03 04:53:00,
2013-02-02 23:23:00,35.1,34.0,30.20,WNW,292,2.0,-999.0,96,-99.99,,,0.16,weatherlink.com 1.10,2013-02-03 05:23:00,
2013-02-02 23:38:00,34.9,34.0,30.20,West,273,4.0,-999.0,96,-99.99,,,0.16,weatherlink.com 1.10,2013-02-03 05:38:00,
2013-02-02 23:53:00,34.7,34.0,30.20,West,262,0.0,-999.0,96,-99.99,,,0.16,weatherlink.com 1.10,2013-02-03 05:53:00,